sensor_id;sensor_type;location;lat;lon;timestamp;temperature;humidity
17994;DHT22;9122;48.406;9.984;2023-06-19T00:00:08;24.60;59.20
17994;DHT22;9122;48.406;9.984;2023-06-19T00:02:57;24.60;59.50
17994;DHT22;9122;48.406;9.984;2023-06-19T00:05:41;24.50;59.50
17994;DHT22;9122;48.406;9.984;2023-06-19T00:08:25;24.50;59.30
17994;DHT22;9122;48.406;9.984;2023-06-19T00:11:09;24.40;58.60
17994;DHT22;9122;48.406;9.984;2023-06-19T00:13:53;24.40;58.40
17994;DHT22;9122;48.406;9.984;2023-06-19T00:16:37;24.30;58.80
17994;DHT22;9122;48.406;9.984;2023-06-19T00:19:22;24.30;58.80
17994;DHT22;9122;48.406;9.984;2023-06-19T00:22:07;24.20;58.60
17994;DHT22;9122;48.406;9.984;2023-06-19T00:24:51;24.20;58.30
17994;DHT22;9122;48.406;9.984;2023-06-19T00:27:36;24.10;58.70
17994;DHT22;9122;48.406;9.984;2023-06-19T00:30:21;24.10;59.80
17994;DHT22;9122;48.406;9.984;2023-06-19T00:33:05;24.10;59.60
17994;DHT22;9122;48.406;9.984;2023-06-19T00:35:53;24.00;60.50
17994;DHT22;9122;48.406;9.984;2023-06-19T00:38:39;24.00;61.60
17994;DHT22;9122;48.406;9.984;2023-06-19T00:41:25;24.00;62.20
17994;DHT22;9122;48.406;9.984;2023-06-19T00:44:10;23.90;62.80
17994;DHT22;9122;48.406;9.984;2023-06-19T00:47:01;23.90;63.10
17994;DHT22;9122;48.406;9.984;2023-06-19T00:49:46;23.90;63.20
17994;DHT22;9122;48.406;9.984;2023-06-19T00:52:31;23.80;63.10
17994;DHT22;9122;48.406;9.984;2023-06-19T00:55:16;23.80;62.90
17994;DHT22;9122;48.406;9.984;2023-06-19T00:58:01;23.80;62.80
17994;DHT22;9122;48.406;9.984;2023-06-19T01:00:45;23.70;62.90
17994;DHT22;9122;48.406;9.984;2023-06-19T01:03:30;23.60;63.10
17994;DHT22;9122;48.406;9.984;2023-06-19T01:06:19;23.60;63.30
17994;DHT22;9122;48.406;9.984;2023-06-19T01:09:08;23.60;63.40
17994;DHT22;9122;48.406;9.984;2023-06-19T01:11:59;23.50;63.30
17994;DHT22;9122;48.406;9.984;2023-06-19T01:14:53;23.50;62.70
17994;DHT22;9122;48.406;9.984;2023-06-19T01:17:39;23.50;62.10
17994;DHT22;9122;48.406;9.984;2023-06-19T01:20:24;23.50;62.20
17994;DHT22;9122;48.406;9.984;2023-06-19T01:23:09;23.50;62.50
17994;DHT22;9122;48.406;9.984;2023-06-19T01:25:53;23.40;62.20
17994;DHT22;9122;48.406;9.984;2023-06-19T01:28:42;23.40;62.30
17994;DHT22;9122;48.406;9.984;2023-06-19T01:31:34;23.40;62.70
17994;DHT22;9122;48.406;9.984;2023-06-19T01:34:20;23.30;63.00
17994;DHT22;9122;48.406;9.984;2023-06-19T01:37:07;23.30;63.20
17994;DHT22;9122;48.406;9.984;2023-06-19T01:39:52;23.30;63.50
17994;DHT22;9122;48.406;9.984;2023-06-19T01:42:39;23.30;63.70
17994;DHT22;9122;48.406;9.984;2023-06-19T01:45:24;23.30;64.00
17994;DHT22;9122;48.406;9.984;2023-06-19T01:48:09;23.30;64.10
17994;DHT22;9122;48.406;9.984;2023-06-19T01:50:53;23.20;63.80
17994;DHT22;9122;48.406;9.984;2023-06-19T01:53:38;23.20;63.40
17994;DHT22;9122;48.406;9.984;2023-06-19T01:56:22;23.20;63.30
17994;DHT22;9122;48.406;9.984;2023-06-19T01:59:08;23.10;63.70
17994;DHT22;9122;48.406;9.984;2023-06-19T02:01:52;23.10;64.30
17994;DHT22;9122;48.406;9.984;2023-06-19T02:04:37;23.10;64.80
17994;DHT22;9122;48.406;9.984;2023-06-19T02:07:21;23.10;65.10
17994;DHT22;9122;48.406;9.984;2023-06-19T02:10:06;23.10;65.30
17994;DHT22;9122;48.406;9.984;2023-06-19T02:12:51;23.00;65.50
17994;DHT22;9122;48.406;9.984;2023-06-19T02:15:36;23.00;65.60
17994;DHT22;9122;48.406;9.984;2023-06-19T02:18:22;23.00;65.50
17994;DHT22;9122;48.406;9.984;2023-06-19T02:21:06;23.00;65.10
17994;DHT22;9122;48.406;9.984;2023-06-19T02:23:50;23.00;64.60
17994;DHT22;9122;48.406;9.984;2023-06-19T02:26:34;23.00;64.30
17994;DHT22;9122;48.406;9.984;2023-06-19T02:29:19;22.90;64.70
17994;DHT22;9122;48.406;9.984;2023-06-19T02:32:04;22.90;65.10
17994;DHT22;9122;48.406;9.984;2023-06-19T02:34:49;22.90;65.10
17994;DHT22;9122;48.406;9.984;2023-06-19T02:37:33;22.90;65.30
17994;DHT22;9122;48.406;9.984;2023-06-19T02:40:20;22.80;65.30
17994;DHT22;9122;48.406;9.984;2023-06-19T02:43:05;22.80;65.20
17994;DHT22;9122;48.406;9.984;2023-06-19T02:45:49;22.80;65.20
17994;DHT22;9122;48.406;9.984;2023-06-19T02:48:33;22.70;65.40
17994;DHT22;9122;48.406;9.984;2023-06-19T02:51:17;22.70;65.50
17994;DHT22;9122;48.406;9.984;2023-06-19T02:54:03;22.70;65.40
17994;DHT22;9122;48.406;9.984;2023-06-19T02:56:48;22.70;65.40
17994;DHT22;9122;48.406;9.984;2023-06-19T02:59:33;22.70;65.50
17994;DHT22;9122;48.406;9.984;2023-06-19T03:02:17;22.60;65.00
17994;DHT22;9122;48.406;9.984;2023-06-19T03:05:02;22.60;64.20
17994;DHT22;9122;48.406;9.984;2023-06-19T03:07:47;22.50;63.60
17994;DHT22;9122;48.406;9.984;2023-06-19T03:10:31;22.50;63.00
17994;DHT22;9122;48.406;9.984;2023-06-19T03:13:15;22.50;62.30
17994;DHT22;9122;48.406;9.984;2023-06-19T03:16:00;22.50;62.30
17994;DHT22;9122;48.406;9.984;2023-06-19T03:18:44;22.50;62.00
17994;DHT22;9122;48.406;9.984;2023-06-19T03:21:29;22.50;61.80
17994;DHT22;9122;48.406;9.984;2023-06-19T03:24:13;22.50;62.20
17994;DHT22;9122;48.406;9.984;2023-06-19T03:26:58;22.50;62.60
17994;DHT22;9122;48.406;9.984;2023-06-19T03:29:42;22.50;62.60
17994;DHT22;9122;48.406;9.984;2023-06-19T03:32:26;22.50;62.60
17994;DHT22;9122;48.406;9.984;2023-06-19T03:35:10;22.40;62.70
17994;DHT22;9122;48.406;9.984;2023-06-19T03:37:54;22.50;63.10
17994;DHT22;9122;48.406;9.984;2023-06-19T03:40:39;22.40;63.10
17994;DHT22;9122;48.406;9.984;2023-06-19T03:43:23;22.50;63.20
17994;DHT22;9122;48.406;9.984;2023-06-19T03:46:07;22.50;63.30
17994;DHT22;9122;48.406;9.984;2023-06-19T03:48:52;22.40;63.40
17994;DHT22;9122;48.406;9.984;2023-06-19T03:51:36;22.40;63.60
17994;DHT22;9122;48.406;9.984;2023-06-19T03:54:20;22.40;64.30
17994;DHT22;9122;48.406;9.984;2023-06-19T03:57:05;22.40;63.60
17994;DHT22;9122;48.406;9.984;2023-06-19T03:59:50;22.40;63.70
17994;DHT22;9122;48.406;9.984;2023-06-19T04:02:36;22.40;63.80
17994;DHT22;9122;48.406;9.984;2023-06-19T04:05:21;22.40;63.90
17994;DHT22;9122;48.406;9.984;2023-06-19T04:08:05;22.40;64.10
17994;DHT22;9122;48.406;9.984;2023-06-19T04:10:50;22.40;64.20
17994;DHT22;9122;48.406;9.984;2023-06-19T04:13:34;22.40;64.40
17994;DHT22;9122;48.406;9.984;2023-06-19T04:16:18;22.40;64.70
17994;DHT22;9122;48.406;9.984;2023-06-19T04:19:02;22.40;64.90
17994;DHT22;9122;48.406;9.984;2023-06-19T04:21:46;22.40;65.10
17994;DHT22;9122;48.406;9.984;2023-06-19T04:24:32;22.40;65.20
17994;DHT22;9122;48.406;9.984;2023-06-19T04:27:17;22.40;65.50
17994;DHT22;9122;48.406;9.984;2023-06-19T04:30:02;22.40;65.80
17994;DHT22;9122;48.406;9.984;2023-06-19T04:32:48;22.40;66.60
17994;DHT22;9122;48.406;9.984;2023-06-19T04:35:32;22.50;66.90
17994;DHT22;9122;48.406;9.984;2023-06-19T04:38:16;22.50;66.80
17994;DHT22;9122;48.406;9.984;2023-06-19T04:41:00;22.50;66.80
17994;DHT22;9122;48.406;9.984;2023-06-19T04:43:45;22.50;66.90
17994;DHT22;9122;48.406;9.984;2023-06-19T04:46:29;22.50;67.20
17994;DHT22;9122;48.406;9.984;2023-06-19T04:49:13;22.50;67.30
17994;DHT22;9122;48.406;9.984;2023-06-19T04:51:58;22.50;67.50
17994;DHT22;9122;48.406;9.984;2023-06-19T04:54:42;22.50;67.50
17994;DHT22;9122;48.406;9.984;2023-06-19T04:57:26;22.60;67.70
17994;DHT22;9122;48.406;9.984;2023-06-19T05:00:11;22.60;67.90
17994;DHT22;9122;48.406;9.984;2023-06-19T05:02:56;22.60;68.00
17994;DHT22;9122;48.406;9.984;2023-06-19T05:05:44;22.60;68.10
17994;DHT22;9122;48.406;9.984;2023-06-19T05:08:28;22.60;68.30
17994;DHT22;9122;48.406;9.984;2023-06-19T05:11:12;22.60;68.40
17994;DHT22;9122;48.406;9.984;2023-06-19T05:13:57;22.70;68.30
17994;DHT22;9122;48.406;9.984;2023-06-19T05:16:42;22.70;68.30
17994;DHT22;9122;48.406;9.984;2023-06-19T05:19:26;22.70;68.30
17994;DHT22;9122;48.406;9.984;2023-06-19T05:22:11;22.70;68.20
17994;DHT22;9122;48.406;9.984;2023-06-19T05:24:55;22.70;68.40
17994;DHT22;9122;48.406;9.984;2023-06-19T05:27:39;22.70;68.60
17994;DHT22;9122;48.406;9.984;2023-06-19T05:30:23;22.70;69.50
17994;DHT22;9122;48.406;9.984;2023-06-19T05:33:07;22.70;68.80
17994;DHT22;9122;48.406;9.984;2023-06-19T05:35:52;22.70;69.00
17994;DHT22;9122;48.406;9.984;2023-06-19T05:38:38;22.70;69.10
17994;DHT22;9122;48.406;9.984;2023-06-19T05:41:22;22.70;69.20
17994;DHT22;9122;48.406;9.984;2023-06-19T05:44:07;22.70;69.40
17994;DHT22;9122;48.406;9.984;2023-06-19T05:46:51;22.70;69.50
17994;DHT22;9122;48.406;9.984;2023-06-19T05:49:36;22.70;69.50
17994;DHT22;9122;48.406;9.984;2023-06-19T05:52:20;22.70;69.30
17994;DHT22;9122;48.406;9.984;2023-06-19T05:55:05;22.70;69.40
17994;DHT22;9122;48.406;9.984;2023-06-19T05:57:50;22.70;69.30
17994;DHT22;9122;48.406;9.984;2023-06-19T06:00:34;22.70;69.20
17994;DHT22;9122;48.406;9.984;2023-06-19T06:03:19;22.70;69.40
17994;DHT22;9122;48.406;9.984;2023-06-19T06:06:03;22.70;69.50
17994;DHT22;9122;48.406;9.984;2023-06-19T06:08:48;22.70;69.60
17994;DHT22;9122;48.406;9.984;2023-06-19T06:11:33;22.70;69.60
17994;DHT22;9122;48.406;9.984;2023-06-19T06:14:17;22.70;69.80
17994;DHT22;9122;48.406;9.984;2023-06-19T06:17:02;22.70;69.90
17994;DHT22;9122;48.406;9.984;2023-06-19T06:19:48;22.70;69.90
17994;DHT22;9122;48.406;9.984;2023-06-19T06:22:33;22.70;69.90
17994;DHT22;9122;48.406;9.984;2023-06-19T06:25:17;22.70;70.00
17994;DHT22;9122;48.406;9.984;2023-06-19T06:28:02;22.70;70.30
17994;DHT22;9122;48.406;9.984;2023-06-19T06:30:46;22.70;70.50
17994;DHT22;9122;48.406;9.984;2023-06-19T06:33:31;22.70;70.50
17994;DHT22;9122;48.406;9.984;2023-06-19T06:36:15;22.70;70.40
17994;DHT22;9122;48.406;9.984;2023-06-19T06:38:59;22.80;70.50
17994;DHT22;9122;48.406;9.984;2023-06-19T06:41:44;22.80;70.50
17994;DHT22;9122;48.406;9.984;2023-06-19T06:44:28;22.80;70.50
17994;DHT22;9122;48.406;9.984;2023-06-19T06:47:13;22.80;70.40
17994;DHT22;9122;48.406;9.984;2023-06-19T06:49:57;22.90;70.30
17994;DHT22;9122;48.406;9.984;2023-06-19T06:52:41;22.90;70.20
17994;DHT22;9122;48.406;9.984;2023-06-19T06:55:26;22.90;70.10
17994;DHT22;9122;48.406;9.984;2023-06-19T06:58:10;22.90;70.00
17994;DHT22;9122;48.406;9.984;2023-06-19T07:00:56;23.00;70.20
17994;DHT22;9122;48.406;9.984;2023-06-19T07:03:40;23.10;70.20
17994;DHT22;9122;48.406;9.984;2023-06-19T07:06:26;23.10;70.20
17994;DHT22;9122;48.406;9.984;2023-06-19T07:09:11;23.20;70.40
17994;DHT22;9122;48.406;9.984;2023-06-19T07:11:56;23.20;70.50
17994;DHT22;9122;48.406;9.984;2023-06-19T07:14:40;23.30;70.30
17994;DHT22;9122;48.406;9.984;2023-06-19T07:17:24;23.40;69.80
17994;DHT22;9122;48.406;9.984;2023-06-19T07:20:09;23.40;69.40
17994;DHT22;9122;48.406;9.984;2023-06-19T07:22:53;23.40;69.30
17994;DHT22;9122;48.406;9.984;2023-06-19T07:25:38;23.40;69.60
17994;DHT22;9122;48.406;9.984;2023-06-19T07:28:23;23.40;69.50
17994;DHT22;9122;48.406;9.984;2023-06-19T07:31:07;23.50;69.00
17994;DHT22;9122;48.406;9.984;2023-06-19T07:33:52;23.50;69.00
17994;DHT22;9122;48.406;9.984;2023-06-19T07:36:37;23.50;69.20
17994;DHT22;9122;48.406;9.984;2023-06-19T07:39:21;23.50;69.20
17994;DHT22;9122;48.406;9.984;2023-06-19T07:42:06;23.50;69.10
17994;DHT22;9122;48.406;9.984;2023-06-19T07:44:50;23.50;68.90
17994;DHT22;9122;48.406;9.984;2023-06-19T07:47:34;23.60;69.20
17994;DHT22;9122;48.406;9.984;2023-06-19T07:50:19;23.60;69.30
17994;DHT22;9122;48.406;9.984;2023-06-19T07:53:04;23.60;69.30
17994;DHT22;9122;48.406;9.984;2023-06-19T07:55:49;23.60;69.20
17994;DHT22;9122;48.406;9.984;2023-06-19T07:58:33;23.70;69.10
17994;DHT22;9122;48.406;9.984;2023-06-19T08:01:18;23.80;69.00
17994;DHT22;9122;48.406;9.984;2023-06-19T08:04:02;23.80;69.10
17994;DHT22;9122;48.406;9.984;2023-06-19T08:06:46;23.90;68.70
17994;DHT22;9122;48.406;9.984;2023-06-19T08:09:31;24.00;68.60
17994;DHT22;9122;48.406;9.984;2023-06-19T08:12:15;24.00;68.30
17994;DHT22;9122;48.406;9.984;2023-06-19T08:15:01;24.00;68.30
17994;DHT22;9122;48.406;9.984;2023-06-19T08:17:45;24.10;68.30
17994;DHT22;9122;48.406;9.984;2023-06-19T08:20:30;24.10;68.50
17994;DHT22;9122;48.406;9.984;2023-06-19T08:23:15;24.10;69.50
17994;DHT22;9122;48.406;9.984;2023-06-19T08:26:01;24.10;68.40
17994;DHT22;9122;48.406;9.984;2023-06-19T08:28:46;24.20;68.50
17994;DHT22;9122;48.406;9.984;2023-06-19T08:31:30;24.30;68.50
17994;DHT22;9122;48.406;9.984;2023-06-19T08:34:14;24.40;68.40
17994;DHT22;9122;48.406;9.984;2023-06-19T08:36:59;24.40;68.10
17994;DHT22;9122;48.406;9.984;2023-06-19T08:39:43;24.60;67.80
17994;DHT22;9122;48.406;9.984;2023-06-19T08:42:28;24.70;67.50
17994;DHT22;9122;48.406;9.984;2023-06-19T08:45:13;24.80;67.20
17994;DHT22;9122;48.406;9.984;2023-06-19T08:48:01;24.90;67.00
17994;DHT22;9122;48.406;9.984;2023-06-19T08:50:49;24.90;66.20
17994;DHT22;9122;48.406;9.984;2023-06-19T08:53:35;24.90;65.30
17994;DHT22;9122;48.406;9.984;2023-06-19T08:56:20;25.00;65.20
17994;DHT22;9122;48.406;9.984;2023-06-19T08:59:18;25.00;66.00
17994;DHT22;9122;48.406;9.984;2023-06-19T09:02:02;25.00;65.00
17994;DHT22;9122;48.406;9.984;2023-06-19T09:04:47;25.20;65.30
17994;DHT22;9122;48.406;9.984;2023-06-19T09:07:34;25.20;65.10
17994;DHT22;9122;48.406;9.984;2023-06-19T09:10:19;25.40;64.90
17994;DHT22;9122;48.406;9.984;2023-06-19T09:13:04;25.40;64.80
17994;DHT22;9122;48.406;9.984;2023-06-19T09:15:56;25.60;64.20
17994;DHT22;9122;48.406;9.984;2023-06-19T09:18:44;25.70;63.80
17994;DHT22;9122;48.406;9.984;2023-06-19T09:21:28;25.80;63.70
17994;DHT22;9122;48.406;9.984;2023-06-19T09:24:13;25.90;64.00
17994;DHT22;9122;48.406;9.984;2023-06-19T09:27:14;26.00;62.80
17994;DHT22;9122;48.406;9.984;2023-06-19T09:30:02;26.10;62.40
17994;DHT22;9122;48.406;9.984;2023-06-19T09:32:47;25.90;62.10
17994;DHT22;9122;48.406;9.984;2023-06-19T09:35:32;26.40;61.70
17994;DHT22;9122;48.406;9.984;2023-06-19T09:38:17;26.40;61.20
17994;DHT22;9122;48.406;9.984;2023-06-19T09:41:03;26.60;61.10
17994;DHT22;9122;48.406;9.984;2023-06-19T09:43:49;26.70;60.80
17994;DHT22;9122;48.406;9.984;2023-06-19T09:46:37;26.80;60.00
17994;DHT22;9122;48.406;9.984;2023-06-19T09:49:22;26.90;59.40
17994;DHT22;9122;48.406;9.984;2023-06-19T09:52:10;27.00;59.20
17994;DHT22;9122;48.406;9.984;2023-06-19T09:54:56;27.10;59.50
17994;DHT22;9122;48.406;9.984;2023-06-19T09:57:44;27.10;59.60
17994;DHT22;9122;48.406;9.984;2023-06-19T10:00:29;27.20;59.90
17994;DHT22;9122;48.406;9.984;2023-06-19T10:03:16;27.30;59.10
17994;DHT22;9122;48.406;9.984;2023-06-19T10:06:02;27.40;58.90
17994;DHT22;9122;48.406;9.984;2023-06-19T10:08:47;27.50;58.40
17994;DHT22;9122;48.406;9.984;2023-06-19T10:11:45;27.50;57.90
17994;DHT22;9122;48.406;9.984;2023-06-19T10:14:30;27.60;58.30
17994;DHT22;9122;48.406;9.984;2023-06-19T10:17:17;27.70;58.50
17994;DHT22;9122;48.406;9.984;2023-06-19T10:20:03;27.70;58.10
17994;DHT22;9122;48.406;9.984;2023-06-19T10:22:52;27.80;57.70
17994;DHT22;9122;48.406;9.984;2023-06-19T10:25:41;27.80;57.40
17994;DHT22;9122;48.406;9.984;2023-06-19T10:28:32;27.90;57.40
17994;DHT22;9122;48.406;9.984;2023-06-19T10:31:17;27.90;57.40
17994;DHT22;9122;48.406;9.984;2023-06-19T10:34:03;28.00;57.10
17994;DHT22;9122;48.406;9.984;2023-06-19T10:36:48;28.10;56.90
17994;DHT22;9122;48.406;9.984;2023-06-19T10:39:32;28.10;56.80
17994;DHT22;9122;48.406;9.984;2023-06-19T10:42:16;28.20;56.70
17994;DHT22;9122;48.406;9.984;2023-06-19T10:45:05;28.20;56.70
17994;DHT22;9122;48.406;9.984;2023-06-19T10:47:50;28.30;56.90
17994;DHT22;9122;48.406;9.984;2023-06-19T10:50:37;28.40;55.70
17994;DHT22;9122;48.406;9.984;2023-06-19T10:53:27;28.40;55.80
17994;DHT22;9122;48.406;9.984;2023-06-19T10:56:11;28.50;56.30
17994;DHT22;9122;48.406;9.984;2023-06-19T10:59:06;28.50;56.50
17994;DHT22;9122;48.406;9.984;2023-06-19T11:01:53;28.50;56.40
17994;DHT22;9122;48.406;9.984;2023-06-19T11:04:38;28.60;56.00
17994;DHT22;9122;48.406;9.984;2023-06-19T11:07:23;28.70;55.90
17994;DHT22;9122;48.406;9.984;2023-06-19T11:10:08;28.70;56.00
17994;DHT22;9122;48.406;9.984;2023-06-19T11:13:02;28.70;55.90
17994;DHT22;9122;48.406;9.984;2023-06-19T11:15:51;28.70;55.90
17994;DHT22;9122;48.406;9.984;2023-06-19T11:18:36;28.70;55.70
17994;DHT22;9122;48.406;9.984;2023-06-19T11:21:20;28.70;54.70
17994;DHT22;9122;48.406;9.984;2023-06-19T11:24:06;28.70;53.80
17994;DHT22;9122;48.406;9.984;2023-06-19T11:26:51;28.70;53.80
17994;DHT22;9122;48.406;9.984;2023-06-19T11:29:36;28.80;53.40
17994;DHT22;9122;48.406;9.984;2023-06-19T11:32:21;28.80;53.20
17994;DHT22;9122;48.406;9.984;2023-06-19T11:35:11;28.90;52.50
17994;DHT22;9122;48.406;9.984;2023-06-19T11:37:55;28.90;51.80
17994;DHT22;9122;48.406;9.984;2023-06-19T11:40:40;29.00;51.50
17994;DHT22;9122;48.406;9.984;2023-06-19T11:43:29;29.10;51.20
17994;DHT22;9122;48.406;9.984;2023-06-19T11:46:14;29.10;51.40
17994;DHT22;9122;48.406;9.984;2023-06-19T11:49:14;29.20;50.90
17994;DHT22;9122;48.406;9.984;2023-06-19T11:51:58;29.20;50.80
17994;DHT22;9122;48.406;9.984;2023-06-19T11:54:43;29.30;50.80
17994;DHT22;9122;48.406;9.984;2023-06-19T11:57:27;29.30;50.80
17994;DHT22;9122;48.406;9.984;2023-06-19T12:00:16;29.30;50.90
17994;DHT22;9122;48.406;9.984;2023-06-19T12:03:01;29.30;50.70
17994;DHT22;9122;48.406;9.984;2023-06-19T12:05:45;29.40;50.50
17994;DHT22;9122;48.406;9.984;2023-06-19T12:08:30;29.40;50.60
17994;DHT22;9122;48.406;9.984;2023-06-19T12:11:15;29.50;50.90
17994;DHT22;9122;48.406;9.984;2023-06-19T12:14:00;29.50;51.00
17994;DHT22;9122;48.406;9.984;2023-06-19T12:16:45;29.60;50.80
17994;DHT22;9122;48.406;9.984;2023-06-19T12:19:30;29.60;50.70
17994;DHT22;9122;48.406;9.984;2023-06-19T12:22:14;29.60;50.80
17994;DHT22;9122;48.406;9.984;2023-06-19T12:24:59;29.70;50.30
17994;DHT22;9122;48.406;9.984;2023-06-19T12:27:43;29.70;49.60
17994;DHT22;9122;48.406;9.984;2023-06-19T12:30:27;29.80;49.60
17994;DHT22;9122;48.406;9.984;2023-06-19T12:33:11;29.80;49.30
17994;DHT22;9122;48.406;9.984;2023-06-19T12:35:55;29.70;49.30
17994;DHT22;9122;48.406;9.984;2023-06-19T12:38:40;29.80;49.60
17994;DHT22;9122;48.406;9.984;2023-06-19T12:41:25;29.80;49.50
17994;DHT22;9122;48.406;9.984;2023-06-19T12:44:10;29.80;49.70
17994;DHT22;9122;48.406;9.984;2023-06-19T12:46:55;29.80;49.60
17994;DHT22;9122;48.406;9.984;2023-06-19T12:49:39;29.80;49.50
17994;DHT22;9122;48.406;9.984;2023-06-19T12:52:24;29.80;49.60
17994;DHT22;9122;48.406;9.984;2023-06-19T12:55:08;29.80;49.50
17994;DHT22;9122;48.406;9.984;2023-06-19T12:57:53;29.90;49.70
17994;DHT22;9122;48.406;9.984;2023-06-19T13:00:37;29.90;49.80
17994;DHT22;9122;48.406;9.984;2023-06-19T13:03:24;29.90;50.30
17994;DHT22;9122;48.406;9.984;2023-06-19T13:06:08;29.90;50.10
17994;DHT22;9122;48.406;9.984;2023-06-19T13:08:53;29.90;50.10
17994;DHT22;9122;48.406;9.984;2023-06-19T13:11:38;29.90;50.10
17994;DHT22;9122;48.406;9.984;2023-06-19T13:14:22;29.90;50.10
17994;DHT22;9122;48.406;9.984;2023-06-19T13:17:07;29.80;50.60
17994;DHT22;9122;48.406;9.984;2023-06-19T13:19:52;29.90;49.70
17994;DHT22;9122;48.406;9.984;2023-06-19T13:22:37;29.90;49.90
17994;DHT22;9122;48.406;9.984;2023-06-19T13:25:21;29.90;50.00
17994;DHT22;9122;48.406;9.984;2023-06-19T13:28:05;29.90;49.80
17994;DHT22;9122;48.406;9.984;2023-06-19T13:30:50;29.90;49.80
17994;DHT22;9122;48.406;9.984;2023-06-19T13:33:34;29.90;49.80
17994;DHT22;9122;48.406;9.984;2023-06-19T13:36:18;29.90;50.10
17994;DHT22;9122;48.406;9.984;2023-06-19T13:39:03;29.90;50.10
17994;DHT22;9122;48.406;9.984;2023-06-19T13:41:48;30.00;50.20
17994;DHT22;9122;48.406;9.984;2023-06-19T13:44:32;30.00;49.80
17994;DHT22;9122;48.406;9.984;2023-06-19T13:47:17;30.00;49.90
17994;DHT22;9122;48.406;9.984;2023-06-19T13:50:01;30.00;49.90
17994;DHT22;9122;48.406;9.984;2023-06-19T13:52:46;30.00;49.90
17994;DHT22;9122;48.406;9.984;2023-06-19T13:55:30;30.00;49.70
17994;DHT22;9122;48.406;9.984;2023-06-19T13:58:15;30.00;49.80
17994;DHT22;9122;48.406;9.984;2023-06-19T14:00:59;30.00;49.70
17994;DHT22;9122;48.406;9.984;2023-06-19T14:03:44;30.00;49.70
17994;DHT22;9122;48.406;9.984;2023-06-19T14:06:29;30.00;49.60
17994;DHT22;9122;48.406;9.984;2023-06-19T14:09:14;30.00;49.10
17994;DHT22;9122;48.406;9.984;2023-06-19T14:12:00;29.90;48.90
17994;DHT22;9122;48.406;9.984;2023-06-19T14:14:45;30.00;48.30
17994;DHT22;9122;48.406;9.984;2023-06-19T14:17:32;30.00;48.20
17994;DHT22;9122;48.406;9.984;2023-06-19T14:20:16;30.00;48.70
17994;DHT22;9122;48.406;9.984;2023-06-19T14:23:02;30.00;48.50
17994;DHT22;9122;48.406;9.984;2023-06-19T14:25:46;30.00;47.70
17994;DHT22;9122;48.406;9.984;2023-06-19T14:28:31;30.00;47.50
17994;DHT22;9122;48.406;9.984;2023-06-19T14:31:16;30.00;47.50
17994;DHT22;9122;48.406;9.984;2023-06-19T14:34:00;30.00;47.90
17994;DHT22;9122;48.406;9.984;2023-06-19T14:36:46;30.00;48.00
17994;DHT22;9122;48.406;9.984;2023-06-19T14:39:30;30.00;48.10
17994;DHT22;9122;48.406;9.984;2023-06-19T14:42:15;30.00;48.30
17994;DHT22;9122;48.406;9.984;2023-06-19T14:44:59;30.00;48.20
17994;DHT22;9122;48.406;9.984;2023-06-19T14:47:44;30.00;47.90
17994;DHT22;9122;48.406;9.984;2023-06-19T14:50:28;30.00;47.70
17994;DHT22;9122;48.406;9.984;2023-06-19T14:53:13;30.00;48.10
17994;DHT22;9122;48.406;9.984;2023-06-19T14:55:57;30.00;47.80
17994;DHT22;9122;48.406;9.984;2023-06-19T14:58:42;30.00;47.90
17994;DHT22;9122;48.406;9.984;2023-06-19T15:01:27;30.00;47.60
17994;DHT22;9122;48.406;9.984;2023-06-19T15:04:11;30.00;47.60
17994;DHT22;9122;48.406;9.984;2023-06-19T15:06:56;30.00;47.50
17994;DHT22;9122;48.406;9.984;2023-06-19T15:09:40;30.00;47.50
17994;DHT22;9122;48.406;9.984;2023-06-19T15:12:24;30.00;47.60
17994;DHT22;9122;48.406;9.984;2023-06-19T15:15:09;30.00;47.70
17994;DHT22;9122;48.406;9.984;2023-06-19T15:17:53;30.00;47.70
17994;DHT22;9122;48.406;9.984;2023-06-19T15:20:38;30.00;47.90
17994;DHT22;9122;48.406;9.984;2023-06-19T15:23:22;30.00;48.70
17994;DHT22;9122;48.406;9.984;2023-06-19T15:26:07;30.00;49.20
17994;DHT22;9122;48.406;9.984;2023-06-19T15:28:51;30.00;48.90
17994;DHT22;9122;48.406;9.984;2023-06-19T15:31:37;30.00;49.20
17994;DHT22;9122;48.406;9.984;2023-06-19T15:34:22;30.00;49.00
17994;DHT22;9122;48.406;9.984;2023-06-19T15:37:06;29.90;48.80
17994;DHT22;9122;48.406;9.984;2023-06-19T15:39:51;29.90;48.70
17994;DHT22;9122;48.406;9.984;2023-06-19T15:42:38;29.90;48.30
17994;DHT22;9122;48.406;9.984;2023-06-19T15:45:22;29.90;48.30
17994;DHT22;9122;48.406;9.984;2023-06-19T15:48:07;29.90;48.30
17994;DHT22;9122;48.406;9.984;2023-06-19T15:50:52;29.90;48.00
17994;DHT22;9122;48.406;9.984;2023-06-19T15:53:39;29.90;48.10
17994;DHT22;9122;48.406;9.984;2023-06-19T15:56:24;30.00;48.30
17994;DHT22;9122;48.406;9.984;2023-06-19T15:59:08;30.00;48.00
17994;DHT22;9122;48.406;9.984;2023-06-19T16:01:53;30.00;47.70
17994;DHT22;9122;48.406;9.984;2023-06-19T16:04:37;30.00;47.70
17994;DHT22;9122;48.406;9.984;2023-06-19T16:07:23;29.90;47.50
17994;DHT22;9122;48.406;9.984;2023-06-19T16:10:08;30.00;47.80
17994;DHT22;9122;48.406;9.984;2023-06-19T16:12:52;29.90;48.10
17994;DHT22;9122;48.406;9.984;2023-06-19T16:15:36;29.90;48.10
17994;DHT22;9122;48.406;9.984;2023-06-19T16:18:21;29.90;48.00
17994;DHT22;9122;48.406;9.984;2023-06-19T16:21:06;29.90;48.00
17994;DHT22;9122;48.406;9.984;2023-06-19T16:23:50;29.90;48.20
17994;DHT22;9122;48.406;9.984;2023-06-19T16:26:35;29.90;48.30
17994;DHT22;9122;48.406;9.984;2023-06-19T16:29:19;29.90;48.40
17994;DHT22;9122;48.406;9.984;2023-06-19T16:32:04;29.90;48.50
17994;DHT22;9122;48.406;9.984;2023-06-19T16:34:50;29.80;48.70
17994;DHT22;9122;48.406;9.984;2023-06-19T16:37:34;29.80;49.00
17994;DHT22;9122;48.406;9.984;2023-06-19T16:40:19;29.80;49.10
17994;DHT22;9122;48.406;9.984;2023-06-19T16:43:03;29.80;49.10
17994;DHT22;9122;48.406;9.984;2023-06-19T16:45:47;29.70;49.20
17994;DHT22;9122;48.406;9.984;2023-06-19T16:48:31;29.70;49.70
17994;DHT22;9122;48.406;9.984;2023-06-19T16:51:16;29.70;50.10
17994;DHT22;9122;48.406;9.984;2023-06-19T16:54:01;29.70;50.10
17994;DHT22;9122;48.406;9.984;2023-06-19T16:56:45;29.70;50.30
17994;DHT22;9122;48.406;9.984;2023-06-19T16:59:29;29.70;50.40
17994;DHT22;9122;48.406;9.984;2023-06-19T17:02:13;29.70;50.50
17994;DHT22;9122;48.406;9.984;2023-06-19T17:04:58;29.70;50.50
17994;DHT22;9122;48.406;9.984;2023-06-19T17:07:42;29.70;50.60
17994;DHT22;9122;48.406;9.984;2023-06-19T17:10:29;29.70;50.70
17994;DHT22;9122;48.406;9.984;2023-06-19T17:13:14;29.70;50.70
17994;DHT22;9122;48.406;9.984;2023-06-19T17:16:01;29.70;50.90
17994;DHT22;9122;48.406;9.984;2023-06-19T17:18:46;29.70;51.00
17994;DHT22;9122;48.406;9.984;2023-06-19T17:21:30;29.70;51.10
17994;DHT22;9122;48.406;9.984;2023-06-19T17:24:15;29.70;51.30
17994;DHT22;9122;48.406;9.984;2023-06-19T17:26:59;29.70;51.30
17994;DHT22;9122;48.406;9.984;2023-06-19T17:29:44;29.60;51.50
17994;DHT22;9122;48.406;9.984;2023-06-19T17:32:29;29.60;51.70
17994;DHT22;9122;48.406;9.984;2023-06-19T17:35:16;29.60;52.00
17994;DHT22;9122;48.406;9.984;2023-06-19T17:38:01;29.60;52.10